Sanem, Luxembourg
Current Conditions -  °F | °C
As of 3:20 PM on Monday 26 Jan 2015 (Local Time) from ELLX Reporting Station
Drizzle Drizzle  
Wind Chill: 28°   Ceiling: 100
Heat Index: 34°   Visibility: 0.12mi
Dew Point: 34°   Wind: 7mph
Humidity: 100%   Direction: 210°SSW
Pressure: 30.09"   Gusts: NA
Location:  49.55°N, 5.93°E
Report Text: ELLX 261420Z 21006KT 180V240 0200 R24/0400V0600U -DZ FG BKN001 01/01 Q1019 RERA NOSIG
Loading
Personal Weather Stations






























Interactive Weather Map New forecast layout! Learn more

10-Day Weather Forecast

Advertisements
Track Severe Weather on mobile